createdAt,value
2022-11-08T00:00:02.397Z,13.88
2022-11-08T00:15:02.041Z,13.73
2022-11-08T00:30:01.783Z,13.56
2022-11-08T00:45:02.431Z,13.38
2022-11-08T01:00:02.088Z,13.29
2022-11-08T01:15:01.779Z,13.19
2022-11-08T01:30:02.457Z,13.02
2022-11-08T01:45:02.123Z,12.92
2022-11-08T02:00:01.772Z,12.84
2022-11-08T02:15:02.417Z,12.72
2022-11-08T02:30:02.076Z,12.68
2022-11-08T02:45:01.754Z,12.51
2022-11-08T03:00:02.383Z,12.6
2022-11-08T03:15:01.975Z,12.53
2022-11-08T03:30:01.751Z,12.54
2022-11-08T03:45:02.377Z,12.56
2022-11-08T04:00:01.983Z,12.5
2022-11-08T04:15:01.662Z,12.45
2022-11-08T04:30:02.336Z,12.3
2022-11-08T04:45:01.948Z,12.12
2022-11-08T05:00:01.651Z,11.93
2022-11-08T05:15:02.328Z,11.78
2022-11-08T05:30:02.512Z,11.65
2022-11-08T05:45:08.151Z,11.59
2022-11-08T06:00:02.147Z,11.51
2022-11-08T06:15:01.768Z,11.52
2022-11-08T06:30:02.464Z,11.46
2022-11-08T06:45:02.102Z,11.45
2022-11-08T07:00:01.791Z,11.51
2022-11-08T07:15:02.463Z,11.51
2022-11-08T07:30:02.181Z,11.55
2022-11-08T07:45:01.886Z,11.7
2022-11-08T08:00:07.452Z,11.93
2022-11-08T08:15:01.595Z,11.96
2022-11-08T08:30:02.253Z,12.11
2022-11-08T08:45:01.968Z,12.43
2022-11-08T09:15:02.324Z,13.12
2022-11-08T09:30:01.999Z,13.55
2022-11-08T09:45:01.638Z,13.86
2022-11-08T10:00:02.309Z,14.03
2022-11-08T10:15:01.983Z,14.19
2022-11-08T10:30:01.673Z,14.46
2022-11-08T10:45:02.329Z,14.68
2022-11-08T11:00:01.980Z,15.01
2022-11-08T11:15:01.644Z,15.22
2022-11-08T11:30:02.370Z,15.42
2022-11-08T11:45:02.036Z,15.6
2022-11-08T12:00:01.709Z,15.69
2022-11-08T12:15:02.380Z,15.83
2022-11-08T12:30:02.141Z,16.11
2022-11-08T12:45:01.764Z,16.16
2022-11-08T13:00:02.433Z,16.32
2022-11-08T13:15:02.096Z,16.51
2022-11-08T13:30:01.854Z,16.46
2022-11-08T13:45:02.578Z,16.58
2022-11-08T14:00:02.276Z,16.43
2022-11-08T14:15:01.924Z,16.32
2022-11-08T14:30:01.668Z,16.31
2022-11-08T14:45:02.359Z,16.27
2022-11-08T15:00:02.077Z,16.11
2022-11-08T15:15:01.786Z,16.02
2022-11-08T15:30:02.483Z,15.9
2022-11-08T15:45:02.135Z,15.83
2022-11-08T16:00:01.833Z,15.68
2022-11-08T16:15:02.564Z,15.62
2022-11-08T16:30:02.239Z,15.52
2022-11-08T16:45:01.937Z,15.39
2022-11-08T17:00:01.601Z,15.33
2022-11-08T17:15:02.234Z,15.29
2022-11-08T17:30:01.969Z,15.1
2022-11-08T17:45:01.643Z,15.09
2022-11-08T18:00:02.309Z,15.03
2022-11-08T18:15:02.095Z,15
2022-11-08T18:30:01.757Z,14.97
2022-11-08T18:45:02.426Z,14.9
2022-11-08T19:00:02.032Z,14.79
2022-11-08T19:15:01.741Z,14.84
2022-11-08T19:30:02.415Z,14.83
2022-11-08T19:45:02.089Z,14.81
2022-11-08T20:00:01.722Z,14.82
2022-11-08T20:15:02.369Z,14.79
2022-11-08T20:30:02.052Z,14.71
2022-11-08T20:45:01.704Z,14.71
2022-11-08T21:00:12.478Z,14.64
2022-11-08T21:15:02.052Z,14.63
2022-11-08T21:30:01.692Z,14.62
2022-11-08T21:45:02.338Z,14.61
2022-11-08T22:00:01.975Z,14.61
2022-11-08T22:15:01.631Z,14.59
2022-11-08T22:30:02.257Z,14.64
2022-11-08T22:45:01.915Z,14.66
2022-11-08T23:00:01.747Z,14.71
2022-11-08T23:15:02.472Z,14.74
2022-11-08T23:30:02.144Z,14.72
2022-11-08T23:45:01.860Z,14.83
